sensor_id;sensor_type;location;lat;lon;timestamp;pressure;altitude;pressure_sealevel;temperature;humidity
35647;BME280;28680;45.642;13.756;2023-01-28T00:33:29;101196.84;;;5.00;100.00
35647;BME280;28680;45.642;13.756;2023-01-28T00:35:59;101204.34;;;5.25;100.00
35647;BME280;28680;45.642;13.756;2023-01-28T00:38:26;101200.41;;;5.17;100.00
35647;BME280;28680;45.642;13.756;2023-01-28T00:40:53;101198.63;;;5.17;100.00
35647;BME280;28680;45.642;13.756;2023-01-28T00:43:19;101220.09;;;4.86;100.00
35647;BME280;28680;45.642;13.756;2023-01-28T00:45:45;101209.59;;;4.87;100.00
35647;BME280;28680;45.642;13.756;2023-01-28T00:48:11;101212.00;;;4.73;100.00
35647;BME280;28680;45.642;13.756;2023-01-28T00:50:37;101212.13;;;4.70;100.00
35647;BME280;28680;45.642;13.756;2023-01-28T00:53:04;101229.50;;;4.88;100.00
35647;BME280;28680;45.642;13.756;2023-01-28T00:55:30;101220.78;;;4.71;100.00
35647;BME280;28680;45.642;13.756;2023-01-28T00:57:55;101230.25;;;4.91;100.00
35647;BME280;28680;45.642;13.756;2023-01-28T01:00:21;101237.84;;;4.76;100.00
35647;BME280;28680;45.642;13.756;2023-01-28T01:02:51;101231.22;;;5.07;100.00
35647;BME280;28680;45.642;13.756;2023-01-28T01:05:17;101235.44;;;5.10;100.00
35647;BME280;28680;45.642;13.756;2023-01-28T01:07:43;101238.56;;;5.35;100.00
35647;BME280;28680;45.642;13.756;2023-01-28T01:10:16;101227.00;;;5.41;100.00
35647;BME280;28680;45.642;13.756;2023-01-28T01:12:45;101245.59;;;5.33;100.00
35647;BME280;28680;45.642;13.756;2023-01-28T01:15:12;101238.56;;;5.35;100.00
35647;BME280;28680;45.642;13.756;2023-01-28T01:17:41;101236.91;;;5.86;100.00
35647;BME280;28680;45.642;13.756;2023-01-28T01:20:17;101242.91;;;5.35;100.00
35647;BME280;28680;45.642;13.756;2023-01-28T01:22:43;101244.53;;;4.82;100.00
35647;BME280;28680;45.642;13.756;2023-01-28T01:25:12;101238.81;;;4.36;100.00
35647;BME280;28680;45.642;13.756;2023-01-28T01:27:38;101240.22;;;4.43;100.00
35647;BME280;28680;45.642;13.756;2023-01-28T01:30:05;101236.59;;;4.85;100.00
35647;BME280;28680;45.642;13.756;2023-01-28T01:32:32;101230.91;;;4.58;100.00
35647;BME280;28680;45.642;13.756;2023-01-28T01:35:00;101222.25;;;4.57;100.00
35647;BME280;28680;45.642;13.756;2023-01-28T01:37:27;101228.44;;;4.74;100.00
35647;BME280;28680;45.642;13.756;2023-01-28T01:39:53;101233.56;;;4.37;100.00
35647;BME280;28680;45.642;13.756;2023-01-28T01:42:20;101238.50;;;4.81;100.00
35647;BME280;28680;45.642;13.756;2023-01-28T01:45:09;101223.88;;;4.60;100.00
35647;BME280;28680;45.642;13.756;2023-01-28T01:51:02;101245.22;;;4.47;100.00
35647;BME280;28680;45.642;13.756;2023-01-28T01:53:31;101249.50;;;4.48;100.00
35647;BME280;28680;45.642;13.756;2023-01-28T01:56:01;101234.09;;;5.20;100.00
35647;BME280;28680;45.642;13.756;2023-01-28T01:58:34;101235.47;;;4.53;100.00
35647;BME280;28680;45.642;13.756;2023-01-28T02:01:02;101233.09;;;4.48;100.00
35647;BME280;28680;45.642;13.756;2023-01-28T02:03:46;101233.34;;;4.99;100.00
35647;BME280;28680;45.642;13.756;2023-01-28T02:06:16;101233.16;;;4.84;100.00
35647;BME280;28680;45.642;13.756;2023-01-28T02:08:44;101228.72;;;4.86;100.00
35647;BME280;28680;45.642;13.756;2023-01-28T02:11:11;101228.63;;;4.31;100.00
35647;BME280;28680;45.642;13.756;2023-01-28T02:13:43;101232.38;;;4.63;100.00
35647;BME280;28680;45.642;13.756;2023-01-28T02:16:10;101228.09;;;4.23;100.00
35647;BME280;28680;45.642;13.756;2023-01-28T02:18:37;101223.09;;;4.39;100.00
35647;BME280;28680;45.642;13.756;2023-01-28T02:24:28;101217.97;;;4.56;100.00
35647;BME280;28680;45.642;13.756;2023-01-28T02:29:53;101223.03;;;4.78;100.00
35647;BME280;28680;45.642;13.756;2023-01-28T02:32:55;101228.06;;;5.00;100.00
35647;BME280;28680;45.642;13.756;2023-01-28T02:35:38;101223.63;;;5.02;100.00
35647;BME280;28680;45.642;13.756;2023-01-28T02:38:15;101237.94;;;4.94;100.00
35647;BME280;28680;45.642;13.756;2023-01-28T02:40:47;101221.75;;;4.87;100.00
35647;BME280;28680;45.642;13.756;2023-01-28T02:43:40;101223.78;;;4.99;100.00
35647;BME280;28680;45.642;13.756;2023-01-28T02:46:34;101231.59;;;5.36;100.00
35647;BME280;28680;45.642;13.756;2023-01-28T02:49:36;101222.44;;;5.81;100.00
35647;BME280;28680;45.642;13.756;2023-01-28T02:52:33;101227.84;;;5.76;100.00
35647;BME280;28680;45.642;13.756;2023-01-28T02:58:15;101231.97;;;4.92;100.00
35647;BME280;28680;45.642;13.756;2023-01-28T03:06:25;101245.81;;;5.28;100.00
35647;BME280;28680;45.642;13.756;2023-01-28T03:09:00;101248.00;;;5.19;100.00
35647;BME280;28680;45.642;13.756;2023-01-28T03:14:57;101253.00;;;5.04;100.00
35647;BME280;28680;45.642;13.756;2023-01-28T03:18:02;101229.22;;;5.12;100.00
35647;BME280;28680;45.642;13.756;2023-01-28T03:21:14;101250.78;;;4.59;100.00
35647;BME280;28680;45.642;13.756;2023-01-28T03:27:33;101253.19;;;5.38;100.00
35647;BME280;28680;45.642;13.756;2023-01-28T03:30:40;101258.34;;;5.20;100.00
35647;BME280;28680;45.642;13.756;2023-01-28T03:33:26;101220.25;;;5.37;100.00
35647;BME280;28680;45.642;13.756;2023-01-28T03:36:11;101236.53;;;5.23;100.00
35647;BME280;28680;45.642;13.756;2023-01-28T03:38:55;101238.00;;;4.73;100.00
35647;BME280;28680;45.642;13.756;2023-01-28T03:41:24;101241.44;;;4.93;100.00
35647;BME280;28680;45.642;13.756;2023-01-28T03:43:51;101234.81;;;5.04;100.00
35647;BME280;28680;45.642;13.756;2023-01-28T03:46:18;101238.84;;;4.93;100.00
35647;BME280;28680;45.642;13.756;2023-01-28T03:48:45;101244.63;;;4.80;100.00
35647;BME280;28680;45.642;13.756;2023-01-28T03:51:11;101242.00;;;4.61;100.00
35647;BME280;28680;45.642;13.756;2023-01-28T03:53:38;101232.34;;;5.20;100.00
35647;BME280;28680;45.642;13.756;2023-01-28T03:56:05;101236.13;;;5.13;100.00
35647;BME280;28680;45.642;13.756;2023-01-28T03:58:31;101223.53;;;4.48;100.00
35647;BME280;28680;45.642;13.756;2023-01-28T04:01:33;101232.88;;;4.72;100.00
35647;BME280;28680;45.642;13.756;2023-01-28T04:03:58;101254.78;;;4.85;100.00
35647;BME280;28680;45.642;13.756;2023-01-28T04:06:24;101246.50;;;4.96;100.00
35647;BME280;28680;45.642;13.756;2023-01-28T04:08:51;101251.41;;;5.02;100.00
35647;BME280;28680;45.642;13.756;2023-01-28T04:11:25;101237.66;;;4.81;100.00
35647;BME280;28680;45.642;13.756;2023-01-28T04:13:51;101239.41;;;4.99;100.00
35647;BME280;28680;45.642;13.756;2023-01-28T04:16:18;101234.44;;;5.83;100.00
35647;BME280;28680;45.642;13.756;2023-01-28T04:18:45;101246.41;;;5.16;100.00
35647;BME280;28680;45.642;13.756;2023-01-28T04:21:11;101248.59;;;4.87;100.00
35647;BME280;28680;45.642;13.756;2023-01-28T04:23:37;101265.94;;;4.49;100.00
35647;BME280;28680;45.642;13.756;2023-01-28T04:26:04;101262.66;;;4.04;100.00
35647;BME280;28680;45.642;13.756;2023-01-28T04:28:29;101266.63;;;3.93;100.00
35647;BME280;28680;45.642;13.756;2023-01-28T04:30:55;101270.59;;;3.81;100.00
35647;BME280;28680;45.642;13.756;2023-01-28T04:33:22;101287.88;;;4.23;100.00
35647;BME280;28680;45.642;13.756;2023-01-28T04:35:48;101278.84;;;4.11;100.00
35647;BME280;28680;45.642;13.756;2023-01-28T04:38:14;101290.13;;;4.10;100.00
35647;BME280;28680;45.642;13.756;2023-01-28T04:40:39;101281.31;;;3.94;100.00
35647;BME280;28680;45.642;13.756;2023-01-28T04:43:05;101276.59;;;4.24;100.00
35647;BME280;28680;45.642;13.756;2023-01-28T04:45:31;101284.75;;;3.94;100.00
35647;BME280;28680;45.642;13.756;2023-01-28T04:47:57;101288.91;;;3.98;100.00
35647;BME280;28680;45.642;13.756;2023-01-28T04:50:23;101292.81;;;4.29;100.00
35647;BME280;28680;45.642;13.756;2023-01-28T04:52:49;101293.97;;;3.81;100.00
35647;BME280;28680;45.642;13.756;2023-01-28T04:55:15;101300.59;;;3.88;100.00
35647;BME280;28680;45.642;13.756;2023-01-28T04:57:40;101285.88;;;3.66;100.00
35647;BME280;28680;45.642;13.756;2023-01-28T05:00:07;101295.47;;;4.48;100.00
35647;BME280;28680;45.642;13.756;2023-01-28T05:02:33;101301.84;;;4.20;100.00
35647;BME280;28680;45.642;13.756;2023-01-28T05:04:59;101295.59;;;4.04;100.00
35647;BME280;28680;45.642;13.756;2023-01-28T05:07:29;101309.72;;;4.19;100.00
35647;BME280;28680;45.642;13.756;2023-01-28T05:09:55;101296.22;;;4.10;100.00
35647;BME280;28680;45.642;13.756;2023-01-28T05:12:21;101296.97;;;3.92;100.00
35647;BME280;28680;45.642;13.756;2023-01-28T05:14:46;101287.53;;;4.51;100.00
35647;BME280;28680;45.642;13.756;2023-01-28T05:17:12;101311.78;;;4.31;100.00
35647;BME280;28680;45.642;13.756;2023-01-28T05:19:38;101298.72;;;3.92;100.00
35647;BME280;28680;45.642;13.756;2023-01-28T05:22:04;101310.28;;;3.62;100.00
35647;BME280;28680;45.642;13.756;2023-01-28T05:24:30;101311.75;;;3.69;100.00
35647;BME280;28680;45.642;13.756;2023-01-28T05:26:56;101309.81;;;3.75;100.00
35647;BME280;28680;45.642;13.756;2023-01-28T05:29:22;101315.22;;;3.68;100.00
35647;BME280;28680;45.642;13.756;2023-01-28T05:31:48;101310.53;;;4.19;100.00
35647;BME280;28680;45.642;13.756;2023-01-28T05:34:14;101326.38;;;3.93;100.00
35647;BME280;28680;45.642;13.756;2023-01-28T05:36:39;101322.41;;;3.84;100.00
35647;BME280;28680;45.642;13.756;2023-01-28T05:39:06;101325.63;;;3.68;100.00
35647;BME280;28680;45.642;13.756;2023-01-28T05:41:33;101327.38;;;3.68;100.00
35647;BME280;28680;45.642;13.756;2023-01-28T05:43:59;101336.41;;;3.80;100.00
35647;BME280;28680;45.642;13.756;2023-01-28T05:46:25;101333.97;;;3.77;100.00
35647;BME280;28680;45.642;13.756;2023-01-28T05:48:51;101330.81;;;4.32;100.00
35647;BME280;28680;45.642;13.756;2023-01-28T05:51:17;101347.09;;;3.94;100.00
35647;BME280;28680;45.642;13.756;2023-01-28T05:53:43;101351.41;;;3.73;100.00
35647;BME280;28680;45.642;13.756;2023-01-28T05:56:09;101351.50;;;3.92;100.00
35647;BME280;28680;45.642;13.756;2023-01-28T05:58:34;101348.19;;;3.88;100.00
35647;BME280;28680;45.642;13.756;2023-01-28T06:01:00;101340.09;;;3.96;100.00
35647;BME280;28680;45.642;13.756;2023-01-28T06:03:26;101348.88;;;3.71;100.00
35647;BME280;28680;45.642;13.756;2023-01-28T06:05:52;101364.38;;;3.73;100.00
35647;BME280;28680;45.642;13.756;2023-01-28T06:08:18;101362.47;;;3.56;100.00
35647;BME280;28680;45.642;13.756;2023-01-28T06:10:45;101356.59;;;3.73;100.00
35647;BME280;28680;45.642;13.756;2023-01-28T06:13:11;101357.91;;;3.83;100.00
35647;BME280;28680;45.642;13.756;2023-01-28T06:15:37;101348.63;;;3.56;100.00
35647;BME280;28680;45.642;13.756;2023-01-28T06:18:03;101348.97;;;3.68;100.00
35647;BME280;28680;45.642;13.756;2023-01-28T06:20:29;101354.66;;;3.56;100.00
35647;BME280;28680;45.642;13.756;2023-01-28T06:22:55;101357.25;;;3.34;100.00
35647;BME280;28680;45.642;13.756;2023-01-28T06:25:21;101360.75;;;3.55;100.00
35647;BME280;28680;45.642;13.756;2023-01-28T06:27:47;101358.78;;;3.84;100.00
35647;BME280;28680;45.642;13.756;2023-01-28T06:30:13;101372.53;;;3.64;100.00
35647;BME280;28680;45.642;13.756;2023-01-28T06:32:39;101376.03;;;3.41;100.00
35647;BME280;28680;45.642;13.756;2023-01-28T06:35:05;101391.16;;;3.51;100.00
35647;BME280;28680;45.642;13.756;2023-01-28T06:37:31;101381.09;;;3.44;100.00
35647;BME280;28680;45.642;13.756;2023-01-28T06:39:56;101378.19;;;3.51;100.00
35647;BME280;28680;45.642;13.756;2023-01-28T06:42:22;101381.66;;;3.52;100.00
35647;BME280;28680;45.642;13.756;2023-01-28T06:44:48;101392.53;;;3.62;100.00
35647;BME280;28680;45.642;13.756;2023-01-28T06:47:14;101394.56;;;3.54;100.00
35647;BME280;28680;45.642;13.756;2023-01-28T06:49:40;101412.31;;;3.42;100.00
35647;BME280;28680;45.642;13.756;2023-01-28T06:52:06;101404.81;;;3.35;100.00
35647;BME280;28680;45.642;13.756;2023-01-28T06:54:32;101409.72;;;3.42;100.00
35647;BME280;28680;45.642;13.756;2023-01-28T06:57:01;101407.81;;;3.69;100.00
35647;BME280;28680;45.642;13.756;2023-01-28T06:59:27;101418.19;;;3.46;100.00
35647;BME280;28680;45.642;13.756;2023-01-28T07:01:52;101418.19;;;3.46;100.00
35647;BME280;28680;45.642;13.756;2023-01-28T07:04:18;101430.56;;;3.39;100.00
35647;BME280;28680;45.642;13.756;2023-01-28T07:06:44;101419.47;;;3.36;100.00
35647;BME280;28680;45.642;13.756;2023-01-28T07:09:10;101427.88;;;3.42;100.00
35647;BME280;28680;45.642;13.756;2023-01-28T07:11:36;101441.06;;;3.36;100.00
35647;BME280;28680;45.642;13.756;2023-01-28T07:14:02;101434.44;;;3.29;100.00
35647;BME280;28680;45.642;13.756;2023-01-28T07:16:28;101438.41;;;3.38;100.00
35647;BME280;28680;45.642;13.756;2023-01-28T07:18:54;101435.81;;;3.38;100.00
35647;BME280;28680;45.642;13.756;2023-01-28T07:21:20;101431.31;;;3.43;100.00
35647;BME280;28680;45.642;13.756;2023-01-28T07:23:45;101445.50;;;3.32;100.00
35647;BME280;28680;45.642;13.756;2023-01-28T07:26:12;101434.84;;;3.64;100.00
35647;BME280;28680;45.642;13.756;2023-01-28T07:28:38;101435.75;;;3.85;100.00
35647;BME280;28680;45.642;13.756;2023-01-28T07:31:04;101436.25;;;3.95;100.00
35647;BME280;28680;45.642;13.756;2023-01-28T07:33:29;101451.28;;;3.86;100.00
35647;BME280;28680;45.642;13.756;2023-01-28T07:35:55;101451.19;;;3.89;100.00
35647;BME280;28680;45.642;13.756;2023-01-28T07:38:21;101454.38;;;4.18;100.00
35647;BME280;28680;45.642;13.756;2023-01-28T07:40:47;101451.75;;;4.61;100.00
35647;BME280;28680;45.642;13.756;2023-01-28T07:43:13;101433.81;;;5.35;100.00
35647;BME280;28680;45.642;13.756;2023-01-28T07:45:39;101449.63;;;5.69;100.00
35647;BME280;28680;45.642;13.756;2023-01-28T07:48:08;101449.34;;;5.94;100.00
35647;BME280;28680;45.642;13.756;2023-01-28T07:50:36;101445.03;;;5.93;100.00
35647;BME280;28680;45.642;13.756;2023-01-28T07:53:09;101457.69;;;5.24;100.00
35647;BME280;28680;45.642;13.756;2023-01-28T07:55:36;101473.69;;;5.55;100.00
35647;BME280;28680;45.642;13.756;2023-01-28T07:58:05;101474.81;;;6.06;100.00
35647;BME280;28680;45.642;13.756;2023-01-28T08:00:33;101463.25;;;6.66;100.00
35647;BME280;28680;45.642;13.756;2023-01-28T08:03:03;101444.56;;;6.91;100.00
35647;BME280;28680;45.642;13.756;2023-01-28T08:05:47;101474.34;;;7.37;100.00
35647;BME280;28680;45.642;13.756;2023-01-28T08:08:14;101478.59;;;7.22;100.00
35647;BME280;28680;45.642;13.756;2023-01-28T08:10:41;101475.38;;;7.51;100.00
35647;BME280;28680;45.642;13.756;2023-01-28T08:13:09;101464.44;;;7.60;100.00
35647;BME280;28680;45.642;13.756;2023-01-28T08:15:37;101468.50;;;7.32;100.00
35647;BME280;28680;45.642;13.756;2023-01-28T08:18:05;101473.53;;;7.69;100.00
35647;BME280;28680;45.642;13.756;2023-01-28T08:20:31;101478.94;;;7.66;100.00
35647;BME280;28680;45.642;13.756;2023-01-28T08:23:10;101488.47;;;7.98;100.00
35647;BME280;28680;45.642;13.756;2023-01-28T08:25:36;101480.63;;;7.33;100.00
35647;BME280;28680;45.642;13.756;2023-01-28T08:28:04;101493.03;;;6.79;100.00
35647;BME280;28680;45.642;13.756;2023-01-28T08:30:31;101490.53;;;7.44;100.00
35647;BME280;28680;45.642;13.756;2023-01-28T08:32:58;101487.91;;;8.24;100.00
35647;BME280;28680;45.642;13.756;2023-01-28T08:35:26;101478.97;;;8.74;100.00
35647;BME280;28680;45.642;13.756;2023-01-28T08:37:52;101488.44;;;9.05;98.81
35647;BME280;28680;45.642;13.756;2023-01-28T08:40:19;101482.66;;;9.43;91.67
35647;BME280;28680;45.642;13.756;2023-01-28T08:42:52;101499.72;;;9.36;84.04
35647;BME280;28680;45.642;13.756;2023-01-28T08:45:20;101481.00;;;9.42;84.68
35647;BME280;28680;45.642;13.756;2023-01-28T08:48:10;101477.56;;;9.83;82.43
35647;BME280;28680;45.642;13.756;2023-01-28T08:50:38;101486.63;;;9.92;81.07
35647;BME280;28680;45.642;13.756;2023-01-28T08:53:10;101488.06;;;9.69;87.74
35647;BME280;28680;45.642;13.756;2023-01-28T08:55:36;101492.00;;;10.18;96.77
35647;BME280;28680;45.642;13.756;2023-01-28T08:58:05;101489.13;;;10.35;97.32
35647;BME280;28680;45.642;13.756;2023-01-28T09:00:32;101496.44;;;10.57;92.22
35647;BME280;28680;45.642;13.756;2023-01-28T09:02:58;101495.25;;;10.48;81.68
35647;BME280;28680;45.642;13.756;2023-01-28T09:05:24;101505.22;;;10.83;72.89
35647;BME280;28680;45.642;13.756;2023-01-28T09:07:50;101504.13;;;10.33;88.92
35647;BME280;28680;45.642;13.756;2023-01-28T09:10:17;101523.06;;;10.78;86.94
35647;BME280;28680;45.642;13.756;2023-01-28T09:12:45;101502.06;;;11.04;87.75
35647;BME280;28680;45.642;13.756;2023-01-28T09:15:12;101526.34;;;11.33;66.64
35647;BME280;28680;45.642;13.756;2023-01-28T09:17:38;101516.16;;;11.03;64.21
35647;BME280;28680;45.642;13.756;2023-01-28T09:20:05;101525.72;;;11.29;73.46
35647;BME280;28680;45.642;13.756;2023-01-28T09:22:32;101528.72;;;11.62;69.83
35647;BME280;28680;45.642;13.756;2023-01-28T09:24:58;101536.59;;;12.00;63.87
35647;BME280;28680;45.642;13.756;2023-01-28T09:27:23;101520.06;;;11.85;67.38
35647;BME280;28680;45.642;13.756;2023-01-28T09:29:49;101537.06;;;11.30;62.56
35647;BME280;28680;45.642;13.756;2023-01-28T09:32:15;101538.31;;;10.99;66.40
35647;BME280;28680;45.642;13.756;2023-01-28T09:34:41;101542.72;;;10.98;65.70
35647;BME280;28680;45.642;13.756;2023-01-28T09:37:09;101549.50;;;10.75;67.86
35647;BME280;28680;45.642;13.756;2023-01-28T09:39:36;101550.56;;;10.72;68.04
35647;BME280;28680;45.642;13.756;2023-01-28T09:47:18;101550.31;;;10.63;71.34
35647;BME280;28680;45.642;13.756;2023-01-28T09:49:50;101544.34;;;10.73;69.72
35647;BME280;28680;45.642;13.756;2023-01-28T09:52:21;101543.97;;;10.80;68.67
35647;BME280;28680;45.642;13.756;2023-01-28T09:54:55;101536.69;;;10.70;68.57
35647;BME280;28680;45.642;13.756;2023-01-28T09:57:43;101533.38;;;10.27;68.53
35647;BME280;28680;45.642;13.756;2023-01-28T10:03:32;101529.34;;;9.65;80.06
35647;BME280;28680;45.642;13.756;2023-01-28T10:14:40;101502.84;;;9.84;80.49
35647;BME280;28680;45.642;13.756;2023-01-28T10:17:31;101500.84;;;10.57;79.42
35647;BME280;28680;45.642;13.756;2023-01-28T10:20:30;101490.00;;;11.14;71.34
35647;BME280;28680;45.642;13.756;2023-01-28T10:23:29;101482.81;;;10.90;69.55
35647;BME280;28680;45.642;13.756;2023-01-28T10:25:59;101487.59;;;10.58;72.42
35647;BME280;28680;45.642;13.756;2023-01-28T10:28:29;101485.97;;;10.70;69.55
35647;BME280;28680;45.642;13.756;2023-01-28T10:30:57;101487.63;;;11.61;68.51
35647;BME280;28680;45.642;13.756;2023-01-28T10:46:39;101446.78;;;13.77;52.34
35647;BME280;28680;45.642;13.756;2023-01-28T10:51:40;101456.16;;;13.25;54.05
35647;BME280;28680;45.642;13.756;2023-01-28T10:54:24;101461.00;;;13.31;54.40
35647;BME280;28680;45.642;13.756;2023-01-28T10:57:01;101454.97;;;13.29;54.80
35647;BME280;28680;45.642;13.756;2023-01-28T10:59:33;101461.19;;;13.28;54.60
35647;BME280;28680;45.642;13.756;2023-01-28T11:02:31;101455.31;;;13.24;54.32
35647;BME280;28680;45.642;13.756;2023-01-28T11:05:19;101466.47;;;13.17;54.05
35647;BME280;28680;45.642;13.756;2023-01-28T11:07:46;101460.25;;;13.06;53.81
35647;BME280;28680;45.642;13.756;2023-01-28T11:10:36;101467.28;;;12.95;54.40
35647;BME280;28680;45.642;13.756;2023-01-28T11:13:05;101468.84;;;12.97;54.10
35647;BME280;28680;45.642;13.756;2023-01-28T11:15:32;101458.19;;;12.87;54.53
35647;BME280;28680;45.642;13.756;2023-01-28T11:18:14;101460.44;;;12.92;54.34
35647;BME280;28680;45.642;13.756;2023-01-28T11:20:48;101467.94;;;12.63;55.64
35647;BME280;28680;45.642;13.756;2023-01-28T11:23:36;101459.88;;;12.53;55.79
35647;BME280;28680;45.642;13.756;2023-01-28T11:26:06;101476.72;;;12.39;55.25
35647;BME280;28680;45.642;13.756;2023-01-28T11:28:34;101475.00;;;12.03;56.23
35647;BME280;28680;45.642;13.756;2023-01-28T11:31:06;101472.00;;;12.56;56.53
35647;BME280;28680;45.642;13.756;2023-01-28T11:33:56;101474.47;;;12.46;55.07
35647;BME280;28680;45.642;13.756;2023-01-28T11:36:28;101475.41;;;12.80;54.57
35647;BME280;28680;45.642;13.756;2023-01-28T11:39:02;101480.19;;;12.75;52.67
35647;BME280;28680;45.642;13.756;2023-01-28T11:41:37;101477.84;;;12.48;54.61
35647;BME280;28680;45.642;13.756;2023-01-28T11:44:26;101479.94;;;12.67;53.88
35647;BME280;28680;45.642;13.756;2023-01-28T11:47:38;101471.81;;;12.35;55.17
35647;BME280;28680;45.642;13.756;2023-01-28T11:53:41;101470.66;;;12.50;54.68
35647;BME280;28680;45.642;13.756;2023-01-28T11:56:45;101469.97;;;12.59;55.31
35647;BME280;28680;45.642;13.756;2023-01-28T12:25:29;101456.66;;;12.14;56.70
35647;BME280;28680;45.642;13.756;2023-01-28T12:33:53;101442.69;;;12.25;56.40
35647;BME280;28680;45.642;13.756;2023-01-28T12:36:51;101436.47;;;12.02;56.38
35647;BME280;28680;45.642;13.756;2023-01-28T12:42:50;101437.72;;;12.09;58.19
35647;BME280;28680;45.642;13.756;2023-01-28T12:45:38;101430.16;;;12.04;58.29
35647;BME280;28680;45.642;13.756;2023-01-28T12:48:33;101435.16;;;12.32;56.07
35647;BME280;28680;45.642;13.756;2023-01-28T12:51:22;101426.91;;;12.25;59.27
35647;BME280;28680;45.642;13.756;2023-01-28T12:54:00;101424.03;;;12.04;60.06
35647;BME280;28680;45.642;13.756;2023-01-28T12:56:39;101424.22;;;11.52;60.31
35647;BME280;28680;45.642;13.756;2023-01-28T13:05:01;101432.66;;;11.82;66.41
35647;BME280;28680;45.642;13.756;2023-01-28T13:07:51;101418.84;;;12.15;65.16
35647;BME280;28680;45.642;13.756;2023-01-28T13:10:43;101426.03;;;12.60;66.33
35647;BME280;28680;45.642;13.756;2023-01-28T13:13:34;101422.31;;;12.62;70.19
35647;BME280;28680;45.642;13.756;2023-01-28T13:16:03;101426.63;;;12.52;57.03
35647;BME280;28680;45.642;13.756;2023-01-28T13:21:02;101430.31;;;12.14;57.80
35647;BME280;28680;45.642;13.756;2023-01-28T13:23:42;101428.44;;;12.63;55.21
35647;BME280;28680;45.642;13.756;2023-01-28T13:31:46;101440.72;;;13.54;51.90
35647;BME280;28680;45.642;13.756;2023-01-28T13:36:51;101433.44;;;13.35;57.83
35647;BME280;28680;45.642;13.756;2023-01-28T13:39:21;101442.13;;;12.91;54.21
35647;BME280;28680;45.642;13.756;2023-01-28T13:42:26;101443.03;;;12.56;55.76
35647;BME280;28680;45.642;13.756;2023-01-28T13:44:52;101448.09;;;11.86;56.26
35647;BME280;28680;45.642;13.756;2023-01-28T13:47:29;101451.81;;;11.71;58.11
35647;BME280;28680;45.642;13.756;2023-01-28T13:50:14;101450.97;;;11.83;61.84
35647;BME280;28680;45.642;13.756;2023-01-28T13:52:55;101443.66;;;11.87;60.83
35647;BME280;28680;45.642;13.756;2023-01-28T13:55:28;101451.16;;;11.43;59.83
35647;BME280;28680;45.642;13.756;2023-01-28T14:12:26;101478.84;;;10.98;74.07
35647;BME280;28680;45.642;13.756;2023-01-28T14:17:54;101501.72;;;10.70;71.33
35647;BME280;28680;45.642;13.756;2023-01-28T14:20:26;101497.91;;;10.61;72.97
35647;BME280;28680;45.642;13.756;2023-01-28T14:23:01;101514.84;;;10.70;81.11
35647;BME280;28680;45.642;13.756;2023-01-28T14:28:37;101522.81;;;10.68;71.90
35647;BME280;28680;45.642;13.756;2023-01-28T14:31:36;101524.59;;;10.13;71.61
35647;BME280;28680;45.642;13.756;2023-01-28T14:34:27;101534.16;;;10.14;78.85
35647;BME280;28680;45.642;13.756;2023-01-28T14:37:18;101530.34;;;9.91;76.58
35647;BME280;28680;45.642;13.756;2023-01-28T14:39:53;101537.91;;;10.10;86.86
35647;BME280;28680;45.642;13.756;2023-01-28T14:42:36;101534.69;;;10.34;87.64
35647;BME280;28680;45.642;13.756;2023-01-28T14:51:15;101551.72;;;9.28;85.45
35647;BME280;28680;45.642;13.756;2023-01-28T14:53:55;101559.06;;;9.07;84.64
35647;BME280;28680;45.642;13.756;2023-01-28T14:56:51;101559.22;;;9.48;84.38
35647;BME280;28680;45.642;13.756;2023-01-28T14:59:24;101562.03;;;9.31;85.71
35647;BME280;28680;45.642;13.756;2023-01-28T15:01:56;101568.13;;;9.01;87.46
35647;BME280;28680;45.642;13.756;2023-01-28T15:04:31;101566.50;;;9.29;90.30
35647;BME280;28680;45.642;13.756;2023-01-28T15:07:14;101564.19;;;8.94;88.99
35647;BME280;28680;45.642;13.756;2023-01-28T15:09:40;101572.56;;;9.15;87.13
35647;BME280;28680;45.642;13.756;2023-01-28T15:12:07;101566.97;;;9.21;88.48
35647;BME280;28680;45.642;13.756;2023-01-28T15:14:33;101570.06;;;9.42;88.77
35647;BME280;28680;45.642;13.756;2023-01-28T15:16:59;101574.13;;;9.03;87.13
35647;BME280;28680;45.642;13.756;2023-01-28T15:19:30;101585.00;;;8.81;88.62
35647;BME280;28680;45.642;13.756;2023-01-28T15:22:03;101586.44;;;8.71;91.82
35647;BME280;28680;45.642;13.756;2023-01-28T15:24:33;101588.84;;;8.44;96.81
35647;BME280;28680;45.642;13.756;2023-01-28T15:27:00;101584.75;;;8.22;97.64
35647;BME280;28680;45.642;13.756;2023-01-28T15:29:36;101594.16;;;8.26;96.75
35647;BME280;28680;45.642;13.756;2023-01-28T15:32:04;101594.66;;;8.17;100.00
35647;BME280;28680;45.642;13.756;2023-01-28T15:34:30;101603.13;;;7.89;100.00
35647;BME280;28680;45.642;13.756;2023-01-28T15:36:58;101612.88;;;7.52;100.00
35647;BME280;28680;45.642;13.756;2023-01-28T15:39:26;101619.97;;;7.50;100.00
35647;BME280;28680;45.642;13.756;2023-01-28T15:42:03;101613.50;;;7.57;100.00
35647;BME280;28680;45.642;13.756;2023-01-28T15:44:41;101614.50;;;7.37;100.00
35647;BME280;28680;45.642;13.756;2023-01-28T15:47:32;101620.91;;;7.49;100.00
35647;BME280;28680;45.642;13.756;2023-01-28T15:50:04;101611.97;;;7.53;100.00
35647;BME280;28680;45.642;13.756;2023-01-28T15:52:41;101614.97;;;7.28;100.00
35647;BME280;28680;45.642;13.756;2023-01-28T15:55:35;101605.69;;;7.22;100.00
35647;BME280;28680;45.642;13.756;2023-01-28T15:58:34;101606.69;;;7.54;100.00